createdAt,value
2023-04-18T00:00:12.468Z,99759.34
2023-04-18T00:04:26.829Z,99762.03
2023-04-18T00:08:39.260Z,99760.22
2023-04-18T00:12:51.852Z,99770.03
2023-04-18T00:17:11.020Z,99769.88
2023-04-18T00:21:25.897Z,99772.53
2023-04-18T00:25:38.423Z,99778.78
2023-04-18T00:29:50.952Z,99768.31
2023-04-18T00:34:03.690Z,99774.41
2023-04-18T00:38:16.104Z,99770.72
2023-04-18T00:42:29.863Z,99770.78
2023-04-18T00:46:42.243Z,99775.41
2023-04-18T00:50:55.184Z,99769.16
2023-04-18T00:55:08.910Z,99766.53
2023-04-18T00:59:22.529Z,99765.81
2023-04-18T01:03:35.495Z,99760.59
2023-04-18T01:07:48.336Z,99762.38
2023-04-18T01:12:04.610Z,99754.56
2023-04-18T01:16:18.594Z,99759.84
2023-04-18T01:20:31.725Z,99757.94
2023-04-18T01:24:44.124Z,99751.59
2023-04-18T01:28:56.965Z,99760.50
2023-04-18T01:33:09.755Z,99755.22
2023-04-18T01:37:22.505Z,99764.06
2023-04-18T01:41:34.959Z,99763.13
2023-04-18T01:45:47.533Z,99761.28
2023-04-18T01:49:59.946Z,99763.09
2023-04-18T01:54:14.305Z,99757.88
2023-04-18T01:58:27.350Z,99762.34
2023-04-18T02:02:39.768Z,99778.03
2023-04-18T02:06:52.581Z,99779.84
2023-04-18T02:11:06.203Z,99772.00
2023-04-18T02:15:18.806Z,99772.91
2023-04-18T02:19:31.352Z,99760.56
2023-04-18T02:23:43.771Z,99773.75
2023-04-18T02:27:57.446Z,99774.59
2023-04-18T02:32:09.953Z,99781.63
2023-04-18T02:36:22.398Z,99775.50
2023-04-18T02:40:34.875Z,99775.50
2023-04-18T02:44:47.207Z,99784.19
2023-04-18T02:48:59.811Z,99771.91
2023-04-18T02:53:12.248Z,99768.38
2023-04-18T02:57:37.101Z,99766.66
2023-04-18T03:02:10.683Z,99768.53
2023-04-18T03:06:29.803Z,99766.66
2023-04-18T03:10:43.105Z,99768.53
2023-04-18T03:14:55.836Z,99762.47
2023-04-18T03:19:08.789Z,99769.50
2023-04-18T03:23:21.257Z,99771.16
2023-04-18T03:27:34.223Z,99768.63
2023-04-18T03:31:47.036Z,99777.47
2023-04-18T03:35:59.615Z,99779.25
2023-04-18T03:40:12.748Z,99779.34
2023-04-18T03:44:26.881Z,99785.47
2023-04-18T03:48:39.361Z,99780.22
2023-04-18T03:52:56.057Z,99786.22
2023-04-18T03:57:08.678Z,99792.44
2023-04-18T04:01:22.952Z,99787.97
2023-04-18T04:05:37.525Z,99795.06
2023-04-18T04:09:50.386Z,99794.09
2023-04-18T04:14:02.777Z,99806.47
2023-04-18T04:18:30.094Z,99809.78
2023-04-18T04:22:44.618Z,99811.59
2023-04-18T04:26:57.458Z,99821.19
2023-04-18T04:31:11.678Z,99823.78
2023-04-18T04:35:25.451Z,99827.19
2023-04-18T04:39:37.865Z,99827.19
2023-04-18T04:44:05.400Z,99833.25
2023-04-18T04:48:20.644Z,99833.16
2023-04-18T04:52:33.141Z,99839.22
2023-04-18T04:56:46.357Z,99845.25
2023-04-18T05:00:58.826Z,99843.34
2023-04-18T05:05:11.752Z,99842.28
2023-04-18T05:09:24.155Z,99851.88
2023-04-18T05:13:36.538Z,99858.84
2023-04-18T05:17:48.877Z,99859.69
2023-04-18T05:22:01.427Z,99860.44
2023-04-18T05:26:13.901Z,99853.19
2023-04-18T05:30:26.499Z,99862.56
2023-04-18T05:34:39.708Z,99868.34
2023-04-18T05:38:52.178Z,99879.19
2023-04-18T05:43:04.569Z,99877.88
2023-04-18T05:47:17.810Z,99872.78
2023-04-18T05:51:31.580Z,99880.97
2023-04-18T05:55:46.599Z,99875.81
2023-04-18T05:59:59.115Z,99880.69
2023-04-18T06:04:11.908Z,99897.59
2023-04-18T06:08:24.796Z,99891.44
2023-04-18T06:12:37.634Z,99902.75
2023-04-18T06:16:50.459Z,99902.41
2023-04-18T06:21:02.880Z,99908.13
2023-04-18T06:25:16.577Z,99906.91
2023-04-18T06:29:30.706Z,99900.19
2023-04-18T06:33:43.171Z,99904.31
2023-04-18T06:37:55.635Z,99906.06
2023-04-18T06:42:08.117Z,99915.16
2023-04-18T06:46:28.751Z,99914.59
2023-04-18T06:50:41.426Z,99914.13
2023-04-18T06:54:53.682Z,99910.78
2023-04-18T06:59:06.288Z,99922.84
2023-04-18T07:03:19.096Z,99908.72
2023-04-18T07:07:32.097Z,99915.56
2023-04-18T07:11:44.650Z,99924.06
2023-04-18T07:15:57.270Z,99917.56
2023-04-18T07:20:12.981Z,99921.78
2023-04-18T07:24:26.861Z,99926.47
2023-04-18T07:28:39.426Z,99928.44
2023-04-18T07:32:51.991Z,99921.59
2023-04-18T07:37:04.788Z,99924.31
2023-04-18T07:41:17.191Z,99928.00
2023-04-18T07:45:29.872Z,99926.94
2023-04-18T07:49:42.382Z,99930.09
2023-04-18T07:53:54.917Z,99939.72
2023-04-18T07:58:07.514Z,99934.81
2023-04-18T08:02:21.937Z,99945.84
2023-04-18T08:06:35.186Z,99948.63
2023-04-18T08:10:48.054Z,99948.38
2023-04-18T08:15:00.669Z,99946.44
2023-04-18T08:19:13.381Z,99949.22
2023-04-18T08:23:26.144Z,99952.59
2023-04-18T08:27:38.709Z,99952.38
2023-04-18T08:31:51.301Z,99952.66
2023-04-18T08:36:03.924Z,99948.72
2023-04-18T08:40:17.306Z,99951.16
2023-04-18T08:44:33.848Z,99948.00
2023-04-18T08:48:50.073Z,99949.06
2023-04-18T08:53:02.718Z,99953.75
2023-04-18T08:57:30.375Z,99956.72
2023-04-18T09:02:01.970Z,99954.13
2023-04-18T09:06:21.429Z,99949.72
2023-04-18T09:10:36.849Z,99959.88
2023-04-18T09:14:51.867Z,99966.25
2023-04-18T09:19:13.427Z,99963.97
2023-04-18T09:23:26.408Z,99968.66
2023-04-18T09:27:38.905Z,99963.63
2023-04-18T09:31:56.367Z,99964.84
2023-04-18T09:36:22.695Z,99972.34
2023-04-18T09:40:36.019Z,99961.16
2023-04-18T09:45:08.743Z,99960.97
2023-04-18T09:49:21.286Z,99966.09
2023-04-18T09:53:38.551Z,99967.72
2023-04-18T09:57:53.142Z,99958.13
2023-04-18T10:02:10.371Z,99967.72
2023-04-18T10:06:27.632Z,99956.00
2023-04-18T10:10:41.113Z,99954.59
2023-04-18T10:14:54.935Z,99955.56
2023-04-18T10:19:27.233Z,99951.91
2023-04-18T10:23:40.843Z,99952.91
2023-04-18T10:27:57.980Z,99945.97
2023-04-18T10:32:10.327Z,99945.88
2023-04-18T10:36:24.946Z,99941.31
2023-04-18T10:40:37.309Z,99938.47
2023-04-18T10:45:26.156Z,99931.44
2023-04-18T10:49:38.650Z,99928.50
2023-04-18T10:53:54.721Z,99931.66
2023-04-18T10:58:07.269Z,99929.38
2023-04-18T11:02:31.018Z,99932.91
2023-04-18T11:06:58.979Z,99931.16
2023-04-18T11:11:11.830Z,99937.16
2023-04-18T11:15:25.916Z,99930.13
2023-04-18T11:19:38.372Z,99931.78
2023-04-18T11:23:50.891Z,99926.00
2023-04-18T11:28:05.012Z,99926.28
2023-04-18T11:32:17.499Z,99921.16
2023-04-18T11:36:30.151Z,99909.31
2023-04-18T11:40:50.636Z,99919.91
2023-04-18T11:45:04.134Z,99920.88
2023-04-18T11:49:33.223Z,99918.50
2023-04-18T11:53:45.825Z,99917.41
2023-04-18T11:58:00.345Z,99919.09
2023-04-18T12:02:16.559Z,99917.22
2023-04-18T12:06:46.841Z,99916.72
2023-04-18T12:10:59.225Z,99918.78
2023-04-18T12:15:15.710Z,99921.78
2023-04-18T12:19:30.306Z,99915.41
2023-04-18T12:23:43.196Z,99918.16
2023-04-18T12:27:59.764Z,99918.47
2023-04-18T12:32:13.386Z,99925.34
2023-04-18T12:36:26.817Z,99927.06
2023-04-18T12:40:41.284Z,99916.81
2023-04-18T12:44:53.753Z,99915.56
2023-04-18T12:49:06.237Z,99927.75
2023-04-18T12:53:18.655Z,99924.00
2023-04-18T12:57:31.990Z,99917.38
2023-04-18T13:01:44.599Z,99907.31
2023-04-18T13:05:57.170Z,99907.97
2023-04-18T13:10:13.651Z,99911.81
2023-04-18T13:14:26.842Z,99906.19
2023-04-18T13:18:39.244Z,99918.47
2023-04-18T13:22:51.620Z,99925.50
2023-04-18T13:27:10.582Z,99920.75
2023-04-18T13:31:23.108Z,99905.72
2023-04-18T13:35:36.625Z,99914.41
2023-04-18T13:39:49.233Z,99918.34
2023-04-18T13:44:01.616Z,99924.13
2023-04-18T13:48:16.161Z,99920.94
2023-04-18T13:52:29.058Z,99925.69
2023-04-18T13:56:42.223Z,99923.56
2023-04-18T14:00:54.671Z,99921.41
2023-04-18T14:05:07.760Z,99932.09
2023-04-18T14:09:20.284Z,99933.97
2023-04-18T14:13:32.997Z,99930.81
2023-04-18T14:17:45.913Z,99933.06
2023-04-18T14:21:58.496Z,99934.00
2023-04-18T14:26:11.470Z,99946.81
2023-04-18T14:30:24.057Z,99949.63
2023-04-18T14:34:38.724Z,99952.59
2023-04-18T14:38:51.340Z,99954.88
2023-04-18T14:43:03.928Z,99953.59
2023-04-18T14:47:16.713Z,99956.56
2023-04-18T14:51:29.096Z,99967.53
2023-04-18T14:55:41.740Z,99963.44
2023-04-18T14:59:55.129Z,99963.41
2023-04-18T15:04:08.079Z,99958.66
2023-04-18T15:08:20.966Z,99967.78
2023-04-18T15:12:33.358Z,99965.56
2023-04-18T15:16:45.819Z,99978.38
2023-04-18T15:21:00.340Z,99972.28
2023-04-18T15:25:16.583Z,99977.38
2023-04-18T15:29:30.386Z,99982.06
2023-04-18T15:33:44.090Z,99999.16
2023-04-18T15:37:57.756Z,99998.84
2023-04-18T15:42:10.253Z,100018.91
2023-04-18T15:46:25.950Z,100010.34
2023-04-18T15:50:38.437Z,100012.06
2023-04-18T15:54:53.490Z,100010.34
2023-04-18T15:59:07.130Z,100007.94
2023-04-18T16:03:19.576Z,100016.94
2023-04-18T16:07:32.209Z,100015.94
2023-04-18T16:11:44.986Z,100021.56
2023-04-18T16:15:57.569Z,100007.97
2023-04-18T16:20:10.474Z,100019.38
2023-04-18T16:24:22.809Z,100026.53
2023-04-18T16:28:37.986Z,100024.84
2023-04-18T16:32:50.629Z,100025.75
2023-04-18T16:37:03.020Z,100032.78
2023-04-18T16:41:15.374Z,100036.53
2023-04-18T16:45:27.815Z,100025.63
2023-04-18T16:49:41.565Z,100035.47
2023-04-18T16:53:54.055Z,100026.88
2023-04-18T16:58:06.565Z,100042.19
2023-04-18T17:02:19.095Z,100042.16
2023-04-18T17:06:32.393Z,100058.25
2023-04-18T17:10:44.737Z,100066.38
2023-04-18T17:14:57.233Z,100071.75
2023-04-18T17:19:11.763Z,100088.56
2023-04-18T17:23:24.290Z,100092.09
2023-04-18T17:27:36.862Z,100102.00
2023-04-18T17:31:49.237Z,100100.88
2023-04-18T17:36:02.181Z,100106.56
2023-04-18T17:40:15.884Z,100110.25
2023-04-18T17:44:28.223Z,100119.19
2023-04-18T17:48:41.582Z,100122.00
2023-04-18T17:52:54.500Z,100118.47
2023-04-18T17:57:06.948Z,100121.44
2023-04-18T18:01:21.413Z,100134.97
2023-04-18T18:05:33.871Z,100131.50
2023-04-18T18:09:46.312Z,100136.97
2023-04-18T18:13:59.470Z,100137.03
2023-04-18T18:18:11.840Z,100148.69
2023-04-18T18:22:26.281Z,100152.28
2023-04-18T18:26:38.730Z,100156.81
2023-04-18T18:30:51.408Z,100155.81
2023-04-18T18:35:06.026Z,100164.72
2023-04-18T18:39:18.484Z,100169.06
2023-04-18T18:43:31.301Z,100179.72
2023-04-18T18:47:44.000Z,100176.19
2023-04-18T18:51:57.178Z,100177.22
2023-04-18T18:56:09.813Z,100171.31
2023-04-18T19:00:22.238Z,100168.16
2023-04-18T19:04:34.678Z,100169.16
2023-04-18T19:08:47.240Z,100180.81
2023-04-18T19:13:00.607Z,100194.13
2023-04-18T19:17:13.407Z,100190.81
2023-04-18T19:21:26.364Z,100192.75
2023-04-18T19:25:38.800Z,100197.31
2023-04-18T19:29:51.564Z,100191.00
2023-04-18T19:34:04.131Z,100201.47
2023-04-18T19:38:16.579Z,100201.34
2023-04-18T19:42:29.060Z,100203.13
2023-04-18T19:46:41.450Z,100201.38
2023-04-18T19:50:53.861Z,100200.59
2023-04-18T19:55:06.902Z,100197.88
2023-04-18T19:59:19.352Z,100204.19
2023-04-18T20:03:33.400Z,100208.53
2023-04-18T20:07:45.776Z,100209.34
2023-04-18T20:12:00.750Z,100197.88
2023-04-18T20:16:13.189Z,100200.56
2023-04-18T20:20:25.658Z,100197.06
2023-04-18T20:24:39.634Z,100199.84
2023-04-18T20:28:52.040Z,100197.13
2023-04-18T20:33:04.482Z,100193.66
2023-04-18T20:37:20.081Z,100199.84
2023-04-18T20:41:34.985Z,100200.84
2023-04-18T20:45:51.312Z,100199.91
2023-04-18T20:50:04.039Z,100202.75
2023-04-18T20:54:16.779Z,100205.28
2023-04-18T20:58:30.504Z,100200.84
2023-04-18T21:02:44.036Z,100201.69
2023-04-18T21:06:56.606Z,100199.91
2023-04-18T21:11:09.107Z,100207.94
2023-04-18T21:15:21.481Z,100202.56
2023-04-18T21:19:33.925Z,100212.41
2023-04-18T21:23:46.301Z,100207.28
2023-04-18T21:27:58.666Z,100203.09
2023-04-18T21:32:11.005Z,100204.13
2023-04-18T21:36:25.160Z,100201.81
2023-04-18T21:40:37.994Z,100190.47
2023-04-18T21:44:50.407Z,100194.94
2023-04-18T21:49:03.245Z,100201.91
2023-04-18T21:53:15.774Z,100199.88
2023-04-18T21:57:28.579Z,100206.84
2023-04-18T22:01:41.018Z,100197.03
2023-04-18T22:05:53.552Z,100203.16
2023-04-18T22:10:06.383Z,100201.47
2023-04-18T22:14:20.153Z,100197.06
2023-04-18T22:18:37.598Z,100196.34
2023-04-18T22:22:50.584Z,100191.19
2023-04-18T22:27:03.099Z,100193.13
2023-04-18T22:31:15.753Z,100206.47
2023-04-18T22:35:28.337Z,100195.91
2023-04-18T22:39:40.775Z,100187.97
2023-04-18T22:43:53.239Z,100190.88
2023-04-18T22:48:05.840Z,100188.41
2023-04-18T22:52:19.460Z,100188.50
2023-04-18T22:56:31.811Z,100198.34
2023-04-18T23:00:44.038Z,100190.44
2023-04-18T23:04:59.262Z,100186.97
2023-04-18T23:09:11.597Z,100192.28
2023-04-18T23:13:24.041Z,100191.56
2023-04-18T23:17:36.478Z,100183.63
2023-04-18T23:21:49.742Z,100184.59
2023-04-18T23:26:02.249Z,100189.09
2023-04-18T23:30:14.785Z,100176.78
2023-04-18T23:34:27.132Z,100177.59
2023-04-18T23:38:40.829Z,100171.44
2023-04-18T23:42:53.154Z,100175.03
2023-04-18T23:47:06.155Z,100182.16
2023-04-18T23:51:19.329Z,100170.75
2023-04-18T23:55:31.641Z,100174.25
2023-04-18T23:59:44.035Z,100164.41
